createdAt,value
2018-11-03T00:02:22.033Z,7.77
2018-11-03T00:04:52.513Z,7.81
2018-11-03T00:07:21.498Z,7.83
2018-11-03T00:09:50.364Z,7.83
2018-11-03T00:12:19.566Z,7.79
2018-11-03T00:14:49.202Z,7.73
2018-11-03T00:17:19.749Z,7.68
2018-11-03T00:19:50.022Z,7.64
2018-11-03T00:22:18.895Z,7.63
2018-11-03T00:24:47.691Z,7.68
2018-11-03T00:27:17.540Z,7.68
2018-11-03T00:29:46.440Z,7.69
2018-11-03T00:32:15.419Z,7.70
2018-11-03T00:34:45.962Z,7.70
2018-11-03T00:37:15.274Z,7.73
2018-11-03T00:39:44.382Z,7.74
2018-11-03T00:42:13.234Z,7.74
2018-11-03T00:44:42.620Z,7.72
2018-11-03T00:47:12.382Z,7.68
2018-11-03T00:49:41.190Z,7.68
2018-11-03T00:52:10.962Z,7.69
2018-11-03T00:54:39.859Z,7.68
2018-11-03T00:57:08.750Z,7.72
2018-11-03T00:59:37.718Z,7.73
2018-11-03T01:02:07.043Z,7.74
2018-11-03T01:04:36.042Z,7.75
2018-11-03T01:07:08.552Z,7.75
2018-11-03T01:09:37.370Z,7.72
2018-11-03T01:12:06.511Z,7.71
2018-11-03T01:14:36.179Z,7.69
2018-11-03T01:17:05.224Z,7.68
2018-11-03T01:19:35.816Z,7.66
2018-11-03T01:22:04.802Z,7.64
2018-11-03T01:24:33.674Z,7.62
2018-11-03T01:27:02.899Z,7.61
2018-11-03T01:29:32.542Z,7.61
2018-11-03T01:32:01.395Z,7.59
2018-11-03T01:34:30.214Z,7.51
2018-11-03T01:36:59.123Z,7.47
2018-11-03T01:39:27.974Z,7.47
2018-11-03T01:41:58.029Z,7.44
2018-11-03T01:44:27.550Z,7.44
2018-11-03T01:46:56.439Z,7.44
2018-11-03T01:49:25.246Z,7.43
2018-11-03T01:51:54.090Z,7.40
2018-11-03T01:54:24.576Z,7.42
2018-11-03T01:56:53.422Z,7.41
2018-11-03T01:59:23.640Z,7.37
2018-11-03T02:01:54.093Z,7.36
2018-11-03T02:04:24.933Z,7.36
2018-11-03T02:06:54.059Z,7.31
2018-11-03T02:09:25.887Z,7.32
2018-11-03T02:11:54.764Z,7.28
2018-11-03T02:14:23.670Z,7.24
2018-11-03T02:16:52.831Z,7.21
2018-11-03T02:19:22.369Z,7.17
2018-11-03T02:21:51.287Z,7.19
2018-11-03T02:24:20.129Z,7.19
2018-11-03T02:26:49.298Z,7.17
2018-11-03T02:29:18.174Z,7.13
2018-11-03T02:31:47.075Z,7.13
2018-11-03T02:34:15.987Z,7.14
2018-11-03T02:36:44.834Z,7.12
2018-11-03T02:39:13.673Z,7.10
2018-11-03T02:41:42.819Z,7.07
2018-11-03T02:44:11.775Z,7.05
2018-11-03T02:46:40.646Z,7.06
2018-11-03T02:49:09.496Z,7.06
2018-11-03T02:51:38.292Z,7.07
2018-11-03T02:54:08.211Z,7.08
2018-11-03T02:56:37.091Z,7.08
2018-11-03T02:59:06.443Z,7.07
2018-11-03T03:01:35.264Z,7.04
2018-11-03T03:04:04.189Z,7.00
2018-11-03T03:06:33.389Z,6.99
2018-11-03T03:09:02.247Z,6.94
2018-11-03T03:11:31.141Z,6.91
2018-11-03T03:14:00.423Z,6.92
2018-11-03T03:16:29.234Z,6.95
2018-11-03T03:18:58.039Z,6.96
2018-11-03T03:21:27.372Z,6.97
2018-11-03T03:23:56.210Z,6.88
2018-11-03T03:26:28.822Z,6.84
2018-11-03T03:28:57.777Z,6.85
2018-11-03T03:31:26.662Z,6.82
2018-11-03T03:33:57.186Z,6.78
2018-11-03T03:36:26.793Z,6.79
2018-11-03T03:38:55.643Z,6.77
2018-11-03T03:41:24.640Z,6.79
2018-11-03T03:43:53.848Z,6.69
2018-11-03T03:46:22.659Z,6.69
2018-11-03T03:48:51.538Z,6.66
2018-11-03T03:51:20.796Z,6.65
2018-11-03T03:53:49.738Z,6.63
2018-11-03T03:56:18.579Z,6.68
2018-11-03T03:58:47.400Z,6.72
2018-11-03T04:01:16.753Z,6.73
2018-11-03T04:03:47.192Z,6.70
2018-11-03T04:06:16.054Z,6.67
2018-11-03T04:08:44.936Z,6.63
2018-11-03T04:11:15.458Z,6.64
2018-11-03T04:13:44.338Z,6.64
2018-11-03T04:16:13.196Z,6.61
2018-11-03T04:18:42.051Z,6.57
2018-11-03T04:21:14.626Z,6.59
2018-11-03T04:23:43.512Z,6.61
2018-11-03T04:26:12.399Z,6.63
2018-11-03T04:28:43.279Z,6.66
2018-11-03T04:31:12.181Z,6.68
2018-11-03T04:33:46.090Z,6.64
2018-11-03T04:36:15.666Z,6.63
2018-11-03T04:38:44.599Z,6.62
2018-11-03T04:41:15.584Z,6.64
2018-11-03T04:43:44.827Z,6.63
2018-11-03T04:46:13.664Z,6.59
2018-11-03T04:48:42.842Z,6.50
2018-11-03T04:51:12.171Z,6.51
2018-11-03T04:53:41.010Z,6.55
2018-11-03T04:56:09.794Z,6.57
2018-11-03T04:58:38.663Z,6.59
2018-11-03T05:01:07.487Z,6.57
2018-11-03T05:03:36.436Z,6.57
2018-11-03T05:06:05.362Z,6.60
2018-11-03T05:08:34.242Z,6.60
2018-11-03T05:11:03.082Z,6.61
2018-11-03T05:13:31.898Z,6.64
2018-11-03T05:16:00.819Z,6.67
2018-11-03T05:18:30.271Z,6.67
2018-11-03T05:20:59.521Z,6.70
2018-11-03T05:23:29.157Z,6.68
2018-11-03T05:26:00.867Z,6.65
2018-11-03T05:28:30.771Z,6.66
2018-11-03T05:31:00.143Z,6.66
2018-11-03T05:33:28.978Z,6.67
2018-11-03T05:35:57.849Z,6.68
2018-11-03T05:38:27.598Z,6.66
2018-11-03T05:40:56.496Z,6.67
2018-11-03T05:43:25.379Z,6.67
2018-11-03T05:45:54.640Z,6.63
2018-11-03T05:48:23.535Z,6.57
2018-11-03T05:50:52.406Z,6.59
2018-11-03T05:53:21.279Z,6.57
2018-11-03T05:55:50.466Z,6.55
2018-11-03T05:58:19.332Z,6.61
2018-11-03T06:00:48.200Z,6.54
2018-11-03T06:03:17.659Z,6.51
2018-11-03T06:05:46.818Z,6.45
2018-11-03T06:08:15.671Z,6.47
2018-11-03T06:10:46.383Z,6.43
2018-11-03T06:13:17.916Z,6.39
2018-11-03T06:15:47.262Z,6.41
2018-11-03T06:18:16.146Z,6.44
2018-11-03T06:20:53.491Z,6.37
2018-11-03T06:23:28.323Z,6.38
2018-11-03T06:25:57.548Z,6.42
2018-11-03T06:28:26.665Z,6.46
2018-11-03T06:30:56.229Z,6.46
2018-11-03T06:33:25.232Z,6.46
2018-11-03T06:35:54.244Z,6.41
2018-11-03T06:38:23.706Z,6.41
2018-11-03T06:40:52.594Z,6.41
2018-11-03T06:43:21.491Z,6.44
2018-11-03T06:45:52.451Z,6.47
2018-11-03T06:48:21.309Z,6.54
2018-11-03T06:50:51.942Z,6.62
2018-11-03T06:53:21.221Z,6.66
2018-11-03T06:55:51.013Z,6.71
2018-11-03T06:58:19.880Z,6.73
2018-11-03T07:00:48.785Z,6.73
2018-11-03T07:03:18.083Z,6.79
2018-11-03T07:05:47.070Z,6.86
2018-11-03T07:08:15.982Z,6.89
2018-11-03T07:10:46.459Z,6.87
2018-11-03T07:13:15.464Z,6.89
2018-11-03T07:15:45.994Z,6.95
2018-11-03T07:18:15.315Z,6.95
2018-11-03T07:20:44.192Z,6.93
2018-11-03T07:23:13.709Z,6.96
2018-11-03T07:25:43.433Z,6.91
2018-11-03T07:28:13.499Z,6.97
2018-11-03T07:30:42.459Z,7.00
2018-11-03T07:33:15.717Z,7.02
2018-11-03T07:35:50.799Z,7.05
2018-11-03T07:38:21.522Z,7.03
2018-11-03T07:40:50.779Z,7.01
2018-11-03T07:43:23.308Z,7.06
2018-11-03T07:46:00.331Z,7.05
2018-11-03T07:48:34.339Z,7.12
2018-11-03T07:51:03.622Z,7.13
2018-11-03T07:53:32.742Z,7.22
2018-11-03T07:56:01.626Z,7.23
2018-11-03T07:58:31.441Z,7.26
2018-11-03T08:01:00.277Z,7.24
2018-11-03T08:03:30.443Z,7.28
2018-11-03T08:06:01.539Z,7.23
2018-11-03T08:08:31.180Z,7.30
2018-11-03T08:11:00.119Z,7.43
2018-11-03T08:13:33.209Z,7.47
2018-11-03T08:16:02.071Z,7.49
2018-11-03T08:18:31.324Z,7.36
2018-11-03T08:21:03.790Z,7.36
2018-11-03T08:23:33.536Z,7.36
2018-11-03T08:26:03.180Z,7.40
2018-11-03T08:28:32.088Z,7.39
2018-11-03T08:31:01.262Z,7.36
2018-11-03T08:33:36.378Z,7.34
2018-11-03T08:36:05.299Z,7.35
2018-11-03T08:38:35.359Z,7.37
2018-11-03T08:41:06.473Z,7.40
2018-11-03T08:43:35.958Z,7.38
2018-11-03T08:46:11.777Z,7.38
2018-11-03T08:48:43.402Z,7.41
2018-11-03T08:51:13.640Z,7.37
2018-11-03T08:53:50.459Z,7.38
2018-11-03T08:56:23.057Z,7.42
2018-11-03T08:58:51.861Z,7.45
2018-11-03T09:01:25.550Z,7.47
2018-11-03T09:03:57.912Z,7.49
2018-11-03T09:06:45.706Z,7.56
2018-11-03T09:09:16.847Z,7.55
2018-11-03T09:11:45.888Z,7.60
2018-11-03T09:14:17.453Z,7.70
2018-11-03T09:16:47.002Z,7.77
2018-11-03T09:19:17.046Z,7.88
2018-11-03T09:21:48.418Z,7.92
2018-11-03T09:24:18.640Z,7.90
2018-11-03T09:26:48.314Z,7.86
2018-11-03T09:29:17.627Z,7.86
2018-11-03T09:31:50.313Z,7.96
2018-11-03T09:34:25.083Z,8.08
2018-11-03T09:36:53.933Z,8.10
2018-11-03T09:39:25.454Z,8.15
2018-11-03T09:41:54.370Z,8.15
2018-11-03T09:44:24.476Z,8.09
2018-11-03T09:46:55.077Z,8.08
2018-11-03T09:49:26.777Z,8.09
2018-11-03T09:51:55.736Z,8.14
2018-11-03T09:54:26.152Z,8.23
2018-11-03T09:56:55.699Z,8.27
2018-11-03T09:59:28.416Z,8.27
2018-11-03T10:01:57.784Z,8.32
2018-11-03T10:04:26.606Z,8.30
2018-11-03T10:06:56.491Z,8.32
2018-11-03T10:09:25.882Z,8.41
2018-11-03T10:11:54.764Z,8.47
2018-11-03T10:14:24.429Z,8.56
2018-11-03T10:16:54.734Z,8.59
2018-11-03T10:19:24.033Z,8.62
2018-11-03T10:21:55.223Z,8.78
2018-11-03T10:24:32.398Z,8.87
2018-11-03T10:27:06.497Z,8.97
2018-11-03T10:29:44.376Z,9.02
2018-11-03T10:32:14.365Z,9.08
2018-11-03T10:34:45.283Z,9.09
2018-11-03T10:37:17.247Z,9.11
2018-11-03T10:39:50.296Z,9.06
2018-11-03T10:42:21.542Z,8.97
2018-11-03T10:44:54.394Z,8.99
2018-11-03T10:47:26.322Z,9.02
2018-11-03T10:49:56.029Z,9.02
2018-11-03T10:52:26.365Z,9.01
2018-11-03T10:54:59.350Z,9.09
2018-11-03T10:57:28.682Z,9.13
2018-11-03T10:59:59.244Z,9.27
2018-11-03T11:02:33.166Z,9.37
2018-11-03T11:05:07.185Z,9.38
2018-11-03T11:07:42.275Z,9.34
2018-11-03T11:10:17.558Z,9.37
2018-11-03T11:12:48.921Z,9.40
2018-11-03T11:15:18.379Z,9.38
2018-11-03T11:17:49.040Z,9.33
2018-11-03T11:20:19.405Z,9.41
2018-11-03T11:22:49.622Z,9.36
2018-11-03T11:25:21.170Z,9.36
2018-11-03T11:27:49.926Z,9.35
2018-11-03T11:30:19.539Z,9.40
2018-11-03T11:32:49.807Z,9.54
2018-11-03T11:35:19.400Z,9.59
2018-11-03T11:37:48.191Z,9.60
2018-11-03T11:40:17.044Z,9.56
2018-11-03T11:42:45.887Z,9.52
2018-11-03T11:45:14.678Z,9.49
2018-11-03T11:47:44.830Z,9.55
2018-11-03T11:50:14.504Z,9.56
2018-11-03T11:52:49.065Z,9.51
2018-11-03T11:55:19.215Z,9.50
2018-11-03T11:57:49.197Z,9.44
2018-11-03T12:00:19.053Z,9.45
2018-11-03T12:02:47.934Z,9.41
2018-11-03T12:05:19.944Z,9.36
2018-11-03T12:07:49.382Z,9.33
2018-11-03T12:10:22.823Z,9.41
2018-11-03T12:12:53.521Z,9.36
2018-11-03T12:15:24.744Z,9.30
2018-11-03T12:17:55.399Z,9.29
2018-11-03T12:20:29.063Z,9.32
2018-11-03T12:22:59.367Z,9.26
2018-11-03T12:25:30.398Z,9.20
2018-11-03T12:28:02.538Z,9.20
2018-11-03T12:30:33.476Z,9.22
2018-11-03T12:33:04.303Z,9.15
2018-11-03T12:35:33.922Z,9.07
2018-11-03T12:38:08.474Z,9.12
2018-11-03T12:40:38.865Z,9.16
2018-11-03T12:43:08.214Z,9.13
2018-11-03T12:49:30.665Z,9.21
2018-11-03T12:52:02.333Z,9.27
2018-11-03T12:54:32.685Z,9.23
2018-11-03T12:57:04.043Z,9.21
2018-11-03T12:59:34.247Z,9.21
2018-11-03T13:02:04.425Z,9.17
2018-11-03T13:08:06.334Z,9.07
2018-11-03T13:10:36.460Z,9.08
2018-11-03T13:13:07.366Z,9.03
2018-11-03T13:15:37.089Z,8.96
2018-11-03T13:18:06.422Z,8.90
2018-11-03T13:20:35.291Z,8.89
2018-11-03T13:23:06.403Z,8.87
2018-11-03T13:25:36.850Z,8.86
2018-11-03T13:28:07.453Z,8.88
2018-11-03T13:30:36.397Z,8.74
2018-11-03T13:33:06.281Z,8.71
2018-11-03T13:35:37.376Z,8.62
2018-11-03T13:38:07.186Z,8.63
2018-11-03T13:40:37.948Z,8.60
2018-11-03T13:43:09.491Z,8.54
2018-11-03T13:45:41.478Z,8.53
2018-11-03T13:48:13.663Z,8.55
2018-11-03T13:50:43.452Z,8.48
2018-11-03T13:53:12.314Z,8.43
2018-11-03T13:55:41.165Z,8.43
2018-11-03T13:58:13.131Z,8.44
2018-11-03T14:00:44.172Z,8.45
2018-11-03T14:03:14.836Z,8.44
2018-11-03T14:05:45.253Z,8.45
2018-11-03T14:08:18.267Z,8.44
2018-11-03T14:11:17.837Z,8.42
2018-11-03T14:13:53.474Z,8.40
2018-11-03T14:16:22.373Z,8.37
2018-11-03T14:18:52.390Z,8.33
2018-11-03T14:21:21.385Z,8.34
2018-11-03T14:23:50.331Z,8.32
2018-11-03T14:26:19.453Z,8.35
2018-11-03T14:28:54.536Z,8.31
2018-11-03T14:31:24.759Z,8.31
2018-11-03T14:33:54.387Z,8.28
2018-11-03T14:36:24.138Z,8.26
2018-11-03T14:38:53.006Z,8.27
2018-11-03T14:41:22.206Z,8.30
2018-11-03T14:43:51.794Z,8.29
2018-11-03T14:46:22.706Z,8.32
2018-11-03T14:48:54.381Z,8.27
2018-11-03T14:51:24.054Z,8.20
2018-11-03T14:53:52.898Z,8.22
2018-11-03T14:56:21.741Z,8.15
2018-11-03T14:58:54.823Z,8.10
2018-11-03T15:01:25.366Z,8.09
2018-11-03T15:03:55.475Z,8.10
2018-11-03T15:06:24.363Z,8.13
2018-11-03T15:08:53.199Z,8.10
2018-11-03T15:11:25.021Z,8.07
2018-11-03T15:13:54.764Z,8.06
2018-11-03T15:16:23.401Z,8.09
2018-11-03T15:18:53.169Z,8.07
2018-11-03T15:21:22.042Z,8.07
2018-11-03T15:23:52.166Z,8.07
2018-11-03T15:26:21.030Z,8.04
2018-11-03T15:28:50.310Z,8.07
2018-11-03T15:31:19.138Z,8.05
2018-11-03T15:33:52.350Z,7.99
2018-11-03T15:36:23.785Z,7.97
2018-11-03T15:38:53.423Z,7.97
2018-11-03T15:41:24.759Z,7.97
2018-11-03T15:43:55.584Z,7.97
2018-11-03T15:46:26.689Z,7.94
2018-11-03T15:48:56.607Z,7.95
2018-11-03T15:51:26.211Z,7.95
2018-11-03T15:59:17.338Z,7.94
2018-11-03T16:01:47.151Z,7.92
2018-11-03T16:04:17.662Z,7.91
2018-11-03T16:06:46.526Z,7.92
2018-11-03T16:09:17.906Z,7.91
2018-11-03T16:11:48.000Z,7.88
2018-11-03T16:14:18.072Z,7.88
2018-11-03T16:16:47.413Z,7.90
2018-11-03T16:19:16.279Z,7.87
2018-11-03T16:21:45.782Z,7.87
2018-11-03T16:24:14.684Z,7.80
2018-11-03T16:26:44.310Z,7.78
2018-11-03T16:29:14.714Z,7.80
2018-11-03T16:31:44.274Z,7.80
2018-11-03T16:34:14.663Z,7.80
2018-11-03T16:36:45.342Z,7.80
2018-11-03T16:39:14.503Z,7.79
2018-11-03T16:41:47.287Z,7.78
2018-11-03T16:44:17.797Z,7.76
2018-11-03T16:46:48.803Z,7.74
2018-11-03T16:49:24.367Z,7.75
2018-11-03T16:51:55.223Z,7.76
2018-11-03T16:54:30.476Z,7.74
2018-11-03T16:56:59.467Z,7.73
2018-11-03T16:59:29.940Z,7.74
2018-11-03T17:01:59.300Z,7.76
2018-11-03T17:04:28.875Z,7.74
2018-11-03T17:06:59.505Z,7.75
2018-11-03T17:09:28.995Z,7.75
2018-11-03T17:11:57.942Z,7.74
2018-11-03T17:14:26.851Z,7.73
2018-11-03T17:16:55.991Z,7.72
2018-11-03T17:19:24.850Z,7.74
2018-11-03T17:21:53.722Z,7.77
2018-11-03T17:24:24.539Z,7.77
2018-11-03T17:26:57.078Z,7.80
2018-11-03T17:29:26.918Z,7.79
2018-11-03T17:31:57.865Z,7.77
2018-11-03T17:34:29.616Z,7.76
2018-11-03T17:36:59.319Z,7.74
2018-11-03T17:39:29.423Z,7.72
2018-11-03T17:41:59.679Z,7.72
2018-11-03T17:44:36.294Z,7.73
2018-11-03T17:47:07.490Z,7.74
2018-11-03T17:49:40.164Z,7.72
2018-11-03T17:52:13.008Z,7.74
2018-11-03T17:54:42.493Z,7.72
2018-11-03T17:57:18.839Z,7.71
2018-11-03T17:59:47.838Z,7.71
2018-11-03T18:02:18.773Z,7.73
2018-11-03T18:04:49.475Z,7.70
2018-11-03T18:07:21.306Z,7.72
2018-11-03T18:09:54.403Z,7.68
2018-11-03T18:12:27.099Z,7.71
2018-11-03T18:14:57.151Z,7.72
2018-11-03T18:17:29.218Z,7.70
2018-11-03T18:20:05.338Z,7.67
2018-11-03T18:22:39.075Z,7.65
2018-11-03T18:25:14.319Z,7.64
2018-11-03T18:27:46.433Z,7.63
2018-11-03T18:30:21.663Z,7.66
2018-11-03T18:32:54.754Z,7.68
2018-11-03T18:35:29.364Z,7.67
2018-11-03T18:38:00.290Z,7.68
2018-11-03T18:40:32.414Z,7.63
2018-11-03T18:45:49.350Z,7.64
2018-11-03T18:48:18.945Z,7.63
2018-11-03T18:50:52.547Z,7.65
2018-11-03T18:53:22.383Z,7.68
2018-11-03T18:55:54.667Z,7.68
2018-11-03T18:58:26.948Z,7.67
2018-11-03T19:00:57.334Z,7.66
2018-11-03T19:03:26.515Z,7.64
2018-11-03T19:05:56.809Z,7.63
2018-11-03T19:08:26.631Z,7.63
2018-11-03T19:10:58.711Z,7.65
2018-11-03T19:13:27.560Z,7.69
2018-11-03T19:15:57.185Z,7.69
2018-11-03T19:18:26.063Z,7.68
2018-11-03T19:20:55.303Z,7.70
2018-11-03T19:30:21.317Z,7.66
2018-11-03T19:32:51.810Z,7.66
2018-11-03T19:35:27.106Z,7.68
2018-11-03T19:37:57.766Z,7.68
2018-11-03T19:40:50.820Z,7.67
2018-11-03T19:43:21.352Z,7.68
2018-11-03T19:45:50.411Z,7.69
2018-11-03T19:48:22.299Z,7.67
2018-11-03T19:50:51.733Z,7.67
2018-11-03T19:53:23.779Z,7.69
2018-11-03T19:56:01.236Z,7.70
2018-11-03T19:58:32.115Z,7.68
2018-11-03T20:01:03.704Z,7.66
2018-11-03T20:03:36.433Z,7.61
2018-11-03T20:06:05.330Z,7.61
2018-11-03T20:08:40.318Z,7.63
2018-11-03T20:11:11.970Z,7.65
2018-11-03T20:13:45.080Z,7.65
2018-11-03T20:16:14.842Z,7.63
2018-11-03T20:18:50.094Z,7.63
2018-11-03T20:21:20.436Z,7.64
2018-11-03T20:23:50.007Z,7.63
2018-11-03T20:26:21.866Z,7.63
2018-11-03T20:28:50.706Z,7.64
2018-11-03T20:31:26.116Z,7.62
2018-11-03T20:33:59.309Z,7.64
2018-11-03T20:36:30.120Z,7.67
2018-11-03T20:39:01.443Z,7.68
2018-11-03T20:41:32.020Z,7.68
2018-11-03T20:44:02.087Z,7.68
2018-11-03T20:46:30.880Z,7.67
2018-11-03T20:49:04.442Z,7.68
2018-11-03T20:51:37.418Z,7.70
2018-11-03T20:54:08.468Z,7.70
2018-11-03T20:56:38.503Z,7.71
2018-11-03T20:59:07.407Z,7.71
2018-11-03T21:01:38.152Z,7.73
2018-11-03T21:04:07.555Z,7.72
2018-11-03T21:06:38.220Z,7.72
2018-11-03T21:09:10.056Z,7.73
2018-11-03T21:11:47.486Z,7.70
2018-11-03T21:14:21.666Z,7.68
2018-11-03T21:16:52.184Z,7.67
2018-11-03T21:19:22.336Z,7.67
2018-11-03T21:21:56.518Z,7.67
2018-11-03T21:24:25.442Z,7.66
2018-11-03T21:26:56.206Z,7.66
2018-11-03T21:29:25.398Z,7.64
2018-11-03T21:31:55.546Z,7.63
2018-11-03T21:34:25.718Z,7.63
2018-11-03T21:37:08.885Z,7.61
2018-11-03T21:39:39.680Z,7.60
2018-11-03T21:42:09.534Z,7.61
2018-11-03T21:44:41.365Z,7.61
2018-11-03T21:47:14.126Z,7.59
2018-11-03T21:49:46.641Z,7.59
2018-11-03T21:52:30.412Z,7.57
2018-11-03T21:55:00.343Z,7.58
2018-11-03T21:57:31.298Z,7.57
2018-11-03T22:00:00.266Z,7.57
2018-11-03T22:02:30.441Z,7.54
2018-11-03T22:05:02.942Z,7.53
2018-11-03T22:07:34.424Z,7.52
2018-11-03T22:10:08.458Z,7.51
2018-11-03T22:12:40.052Z,7.49
2018-11-03T22:15:12.363Z,7.49
2018-11-03T22:17:43.150Z,7.47
2018-11-03T22:20:15.510Z,7.47
2018-11-03T22:22:47.975Z,7.45
2018-11-03T22:25:18.191Z,7.45
2018-11-03T22:27:47.124Z,7.38
2018-11-03T22:30:16.430Z,7.36
2018-11-03T22:32:47.371Z,7.35
2018-11-03T22:35:17.386Z,7.36
2018-11-03T22:37:46.527Z,7.37
2018-11-03T22:40:16.514Z,7.34
2018-11-03T22:42:46.591Z,7.35
2018-11-03T22:45:15.461Z,7.33
2018-11-03T22:47:44.462Z,7.34
2018-11-03T22:50:16.177Z,7.35
2018-11-03T22:52:46.142Z,7.37
2018-11-03T22:55:16.350Z,7.36
2018-11-03T22:57:45.998Z,7.33
2018-11-03T23:00:15.280Z,7.31
2018-11-03T23:02:48.649Z,7.29
2018-11-03T23:05:25.431Z,7.21
2018-11-03T23:07:55.592Z,7.18
2018-11-03T23:10:24.878Z,7.13
2018-11-03T23:12:55.970Z,7.12
2018-11-03T23:15:41.268Z,7.12
2018-11-03T23:18:11.935Z,7.17
2018-11-03T23:20:43.283Z,7.20
2018-11-03T23:23:14.235Z,7.18
2018-11-03T23:25:47.703Z,7.21
2018-11-03T23:28:17.413Z,7.22
2018-11-03T23:33:31.894Z,7.19
2018-11-03T23:36:09.572Z,7.18
2018-11-03T23:38:50.257Z,7.20
2018-11-03T23:41:19.784Z,7.22
2018-11-03T23:43:56.686Z,7.24
2018-11-03T23:46:32.220Z,7.25
2018-11-03T23:49:03.848Z,7.25
2018-11-03T23:51:34.335Z,7.28
2018-11-03T23:54:04.134Z,7.27
2018-11-03T23:56:34.188Z,7.27
2018-11-03T23:59:03.304Z,7.27
